Terminal Aerodrome Forecast
Issued by NWS

Home | Current Version | Previous Version | Text Only | Print | Product List | Glossary On
Versions: 1 2 3 4 5 6 7 8 9 10 11 12 13 14 15
000
FTUS44 KTSA 301400 AAA
TAFBVO
TAF AMD
KBVO 301413Z 3014/3112 VRB05KT P6SM OVC015
      TEMPO 3014/3017 BKN007
     FM301700 35008G15KT P6SM OVC025
     FM302200 01002KT P6SM BKN050
     FM310800 00000KT P6SM SKC=

USA.gov is the U.S. government's official web portal to all federal, state and local government web resources and services.